createdAt,value
2019-01-28T00:00:56.292Z,28.30
2019-01-28T00:03:24.758Z,25.33
2019-01-28T00:05:53.047Z,26.80
2019-01-28T00:08:22.177Z,24.63
2019-01-28T00:10:50.518Z,34.40
2019-01-28T00:13:18.951Z,25.88
2019-01-28T00:15:47.840Z,25.20
2019-01-28T00:18:16.234Z,24.65
2019-01-28T00:20:44.541Z,21.87
2019-01-28T00:23:12.825Z,28.57
2019-01-28T00:25:41.154Z,29.27
2019-01-28T00:28:10.674Z,23.62
2019-01-28T00:30:38.924Z,32.78
2019-01-28T00:33:07.320Z,31.05
2019-01-28T00:35:37.231Z,28.00
2019-01-28T00:38:05.512Z,33.47
2019-01-28T00:40:33.843Z,35.38
2019-01-28T00:43:02.136Z,34.33
2019-01-28T00:45:30.414Z,31.53
2019-01-28T00:47:58.742Z,29.45
2019-01-28T00:50:27.034Z,26.20
2019-01-28T00:52:55.310Z,34.07
2019-01-28T00:55:23.626Z,32.30
2019-01-28T00:57:53.176Z,29.87
2019-01-28T01:00:23.318Z,28.02
2019-01-28T01:02:51.709Z,27.05
2019-01-28T01:05:20.069Z,24.60
2019-01-28T01:07:48.360Z,36.70
2019-01-28T01:10:17.535Z,27.07
2019-01-28T01:12:45.808Z,29.60
2019-01-28T01:15:16.043Z,25.12
2019-01-28T01:17:46.008Z,38.58
2019-01-28T01:20:15.928Z,37.78
2019-01-28T01:22:44.290Z,34.13
2019-01-28T01:25:13.346Z,26.33
2019-01-28T01:27:41.637Z,28.32
2019-01-28T01:30:15.547Z,33.18
2019-01-28T01:32:43.896Z,30.68
2019-01-28T01:35:12.229Z,25.12
2019-01-28T01:37:40.519Z,26.20
2019-01-28T01:40:13.827Z,26.40
2019-01-28T01:42:42.098Z,28.57
2019-01-28T01:45:12.835Z,22.52
2019-01-28T01:47:42.794Z,21.68
2019-01-28T01:50:11.694Z,36.48
2019-01-28T01:52:39.977Z,20.35
2019-01-28T01:55:10.851Z,28.55
2019-01-28T01:57:39.145Z,24.45
2019-01-28T02:00:15.850Z,35.27
2019-01-28T02:02:44.122Z,20.43
2019-01-28T02:05:12.479Z,32.10
2019-01-28T02:07:40.812Z,24.75
2019-01-28T02:10:13.991Z,25.75
2019-01-28T02:12:43.122Z,21.80
2019-01-28T02:15:14.543Z,19.60
2019-01-28T02:17:42.853Z,22.60
2019-01-28T02:20:11.764Z,23.17
2019-01-28T02:22:40.105Z,24.52
2019-01-28T02:25:10.819Z,15.97
2019-01-28T02:27:39.100Z,23.87
2019-01-28T02:30:15.091Z,18.17
2019-01-28T02:32:43.384Z,15.00
2019-01-28T02:38:30.636Z,20.87
2019-01-28T02:40:58.910Z,17.67
2019-01-28T02:43:27.196Z,31.60
2019-01-28T02:45:55.523Z,16.00
2019-01-28T02:48:23.827Z,15.78
2019-01-28T02:50:52.099Z,17.73
2019-01-28T02:53:20.418Z,21.80
2019-01-28T02:55:48.689Z,18.55
2019-01-28T02:58:16.967Z,17.87
2019-01-28T03:00:45.285Z,17.70
2019-01-28T03:03:13.570Z,19.80
2019-01-28T03:05:41.861Z,16.65
2019-01-28T03:08:10.178Z,17.60
2019-01-28T03:10:38.470Z,19.95
2019-01-28T03:13:06.751Z,19.20
2019-01-28T03:15:35.132Z,19.60
2019-01-28T03:18:03.403Z,18.40
2019-01-28T03:20:31.696Z,18.62
2019-01-28T03:23:00.016Z,16.62
2019-01-28T03:25:28.370Z,19.40
2019-01-28T03:27:56.653Z,19.07
2019-01-28T03:30:24.978Z,19.50
2019-01-28T03:32:53.279Z,21.75
2019-01-28T03:35:21.557Z,19.15
2019-01-28T03:37:49.887Z,14.75
2019-01-28T03:40:19.814Z,17.40
2019-01-28T03:42:48.635Z,14.28
2019-01-28T03:45:18.897Z,15.08
2019-01-28T03:47:47.175Z,22.13
2019-01-28T03:50:17.098Z,16.97
2019-01-28T03:52:45.588Z,22.20
2019-01-28T03:55:13.862Z,12.73
2019-01-28T03:57:42.197Z,19.67
2019-01-28T04:00:18.589Z,23.10
2019-01-28T04:02:46.858Z,13.65
2019-01-28T04:05:15.152Z,20.92
2019-01-28T04:07:43.516Z,13.30
2019-01-28T04:10:15.054Z,18.87
2019-01-28T04:12:43.343Z,22.73
2019-01-28T04:15:14.004Z,15.63
2019-01-28T04:17:42.286Z,12.75
2019-01-28T04:20:12.915Z,29.50
2019-01-28T04:22:41.241Z,18.27
2019-01-28T04:25:10.773Z,14.95
2019-01-28T04:27:39.055Z,19.12
2019-01-28T04:30:10.639Z,17.82
2019-01-28T04:32:38.936Z,16.20
2019-01-28T04:35:08.678Z,23.80
2019-01-28T04:37:36.989Z,19.57
2019-01-28T04:40:11.343Z,13.33
2019-01-28T04:42:39.632Z,12.95
2019-01-28T04:45:10.693Z,13.63
2019-01-28T04:47:38.994Z,22.37
2019-01-28T04:50:10.494Z,20.87
2019-01-28T04:52:38.819Z,15.87
2019-01-28T04:55:08.245Z,15.65
2019-01-28T04:57:36.696Z,16.48
2019-01-28T05:00:08.341Z,20.17
2019-01-28T05:02:36.634Z,21.77
2019-01-28T05:05:05.766Z,15.68
2019-01-28T05:07:34.082Z,15.08
2019-01-28T05:10:02.848Z,14.80
2019-01-28T05:12:31.188Z,14.70
2019-01-28T05:14:59.532Z,13.47
2019-01-28T05:17:27.815Z,14.83
2019-01-28T05:19:56.097Z,16.60
2019-01-28T05:22:24.423Z,12.83
2019-01-28T05:24:52.716Z,20.45
2019-01-28T05:27:20.998Z,18.67
2019-01-28T05:29:49.317Z,16.93
2019-01-28T05:32:17.614Z,24.47
2019-01-28T05:34:45.904Z,24.50
2019-01-28T05:37:15.011Z,22.65
2019-01-28T05:39:43.279Z,17.33
2019-01-28T05:42:11.567Z,16.82
2019-01-28T05:44:39.885Z,15.70
2019-01-28T05:47:08.163Z,25.03
2019-01-28T05:49:36.452Z,18.87
2019-01-28T05:52:04.789Z,20.82
2019-01-28T05:54:33.072Z,30.05
2019-01-28T05:57:01.357Z,23.17
2019-01-28T05:59:29.672Z,24.87
2019-01-28T06:01:57.948Z,22.00
2019-01-28T06:04:26.234Z,18.97
2019-01-28T06:06:54.543Z,19.03
2019-01-28T06:09:22.823Z,23.02
2019-01-28T06:11:51.115Z,20.80
2019-01-28T06:14:19.439Z,18.97
2019-01-28T06:16:47.792Z,19.30
2019-01-28T06:19:16.078Z,23.00
2019-01-28T06:21:44.384Z,24.87
2019-01-28T06:24:12.664Z,24.10
2019-01-28T06:26:40.945Z,16.30
2019-01-28T06:29:09.238Z,22.53
2019-01-28T06:31:37.518Z,17.93
2019-01-28T06:34:05.804Z,24.73
2019-01-28T06:36:34.126Z,28.53
2019-01-28T06:39:02.479Z,20.43
2019-01-28T06:41:30.763Z,22.27
2019-01-28T06:43:59.078Z,23.97
2019-01-28T06:46:27.355Z,24.20
2019-01-28T06:48:55.639Z,28.70
2019-01-28T06:51:23.957Z,28.93
2019-01-28T06:53:52.243Z,31.23
2019-01-28T06:56:20.532Z,21.87
2019-01-28T06:58:48.846Z,22.70
2019-01-28T07:01:17.129Z,25.77
2019-01-28T07:03:45.404Z,24.93
2019-01-28T07:06:13.773Z,29.23
2019-01-28T07:08:43.786Z,36.93
2019-01-28T07:11:12.102Z,31.63
2019-01-28T07:13:40.488Z,29.17
2019-01-28T07:16:09.448Z,26.93
2019-01-28T07:18:37.732Z,29.03
2019-01-28T07:21:06.042Z,29.63
2019-01-28T07:23:34.317Z,32.00
2019-01-28T07:26:02.597Z,28.23
2019-01-28T07:28:30.926Z,27.70
2019-01-28T07:30:59.252Z,24.13
2019-01-28T07:33:27.532Z,28.37
2019-01-28T07:35:55.847Z,28.37
2019-01-28T07:38:24.145Z,27.80
2019-01-28T07:40:52.425Z,27.23
2019-01-28T07:43:20.745Z,27.50
2019-01-28T07:45:49.021Z,34.23
2019-01-28T07:48:17.371Z,26.27
2019-01-28T07:50:45.683Z,28.73
2019-01-28T07:53:14.034Z,36.30
2019-01-28T07:55:42.384Z,35.40
2019-01-28T07:58:10.760Z,38.17
2019-01-28T08:00:39.041Z,36.83
2019-01-28T08:03:07.318Z,25.47
2019-01-28T08:05:35.655Z,26.53
2019-01-28T08:08:04.097Z,16.30
2019-01-28T08:10:32.380Z,25.13
2019-01-28T08:13:00.691Z,18.40
2019-01-28T08:15:29.144Z,29.17
2019-01-28T08:17:57.501Z,25.90
2019-01-28T08:20:25.813Z,23.17
2019-01-28T08:22:54.090Z,21.80
2019-01-28T08:25:22.605Z,25.13
2019-01-28T08:27:51.037Z,28.33
2019-01-28T08:30:27.392Z,26.97
2019-01-28T08:32:55.794Z,25.47
2019-01-28T08:35:24.222Z,36.57
2019-01-28T08:37:52.521Z,35.77
2019-01-28T08:40:22.702Z,31.73
2019-01-28T08:42:50.995Z,34.40
2019-01-28T08:45:19.274Z,37.43
2019-01-28T08:47:47.596Z,41.40
2019-01-28T08:50:26.642Z,29.50
2019-01-28T08:52:55.047Z,30.60
2019-01-28T08:55:25.275Z,37.67
2019-01-28T08:57:53.793Z,35.10
2019-01-28T09:00:24.410Z,35.27
2019-01-28T09:02:52.693Z,39.50
2019-01-28T09:05:22.398Z,46.27
2019-01-28T09:07:50.853Z,58.47
2019-01-28T09:10:21.987Z,43.80
2019-01-28T09:12:50.277Z,34.80
2019-01-28T09:15:20.614Z,30.77
2019-01-28T09:17:48.973Z,41.17
2019-01-28T09:20:28.747Z,33.23
2019-01-28T09:22:57.097Z,36.93
2019-01-28T09:25:25.382Z,43.00
2019-01-28T09:27:53.703Z,37.27
2019-01-28T09:30:26.970Z,39.83
2019-01-28T09:32:55.241Z,34.93
2019-01-28T09:35:23.625Z,28.83
2019-01-28T09:37:52.153Z,25.47
2019-01-28T09:40:25.270Z,36.00
2019-01-28T09:42:53.672Z,49.17
2019-01-28T09:45:24.392Z,43.07
2019-01-28T09:47:52.683Z,31.60
2019-01-28T09:50:21.091Z,48.20
2019-01-28T09:52:50.409Z,30.20
2019-01-28T09:55:18.695Z,46.50
2019-01-28T09:57:47.090Z,38.63
2019-01-28T10:00:21.942Z,59.47
2019-01-28T10:02:50.222Z,38.87
2019-01-28T10:05:18.557Z,52.93
2019-01-28T10:07:46.827Z,37.67
2019-01-28T10:10:19.409Z,43.73
2019-01-28T10:12:47.743Z,65.80
2019-01-28T10:15:19.272Z,53.83
2019-01-28T10:17:47.553Z,48.50
2019-01-28T10:20:19.194Z,39.43
2019-01-28T10:22:47.480Z,31.47
2019-01-28T10:25:15.834Z,48.50
2019-01-28T10:27:44.328Z,40.73
2019-01-28T10:30:15.916Z,39.10
2019-01-28T10:32:44.273Z,47.60
2019-01-28T10:35:12.590Z,44.00
2019-01-28T10:37:40.946Z,92.37
2019-01-28T10:40:15.308Z,62.93
2019-01-28T10:42:43.621Z,50.20
2019-01-28T10:45:13.757Z,46.90
2019-01-28T10:47:42.117Z,50.97
2019-01-28T10:50:13.982Z,41.43
2019-01-28T10:52:42.465Z,45.87
2019-01-28T10:55:12.554Z,51.63
2019-01-28T10:57:40.886Z,43.77
2019-01-28T11:00:15.069Z,39.60
2019-01-28T11:02:43.431Z,33.73
2019-01-28T11:05:11.746Z,39.20
2019-01-28T11:07:40.024Z,40.53
2019-01-28T11:10:11.813Z,36.00
2019-01-28T11:12:40.185Z,38.67
2019-01-28T11:15:14.705Z,48.20
2019-01-28T11:17:43.003Z,58.43
2019-01-28T11:20:12.718Z,56.10
2019-01-28T11:22:41.236Z,51.33
2019-01-28T11:25:15.087Z,45.53
2019-01-28T11:27:43.541Z,36.40
2019-01-28T11:30:15.242Z,60.27
2019-01-28T11:32:43.650Z,55.10
2019-01-28T11:35:12.051Z,31.63
2019-01-28T11:37:40.416Z,49.23
2019-01-28T11:40:14.395Z,42.70
2019-01-28T11:42:42.820Z,46.30
2019-01-28T11:45:14.560Z,103.37
2019-01-28T11:47:42.923Z,80.73
2019-01-28T11:50:14.286Z,38.60
2019-01-28T11:52:42.785Z,46.60
2019-01-28T11:55:11.078Z,44.73
2019-01-28T11:57:39.400Z,48.67
2019-01-28T12:00:37.602Z,38.60
2019-01-28T12:03:06.055Z,24.77
2019-01-28T12:05:34.632Z,37.33
2019-01-28T12:08:04.211Z,32.27
2019-01-28T12:10:32.668Z,27.50
2019-01-28T12:13:01.091Z,24.47
2019-01-28T12:15:29.592Z,26.23
2019-01-28T12:17:57.911Z,18.77
2019-01-28T12:20:26.399Z,20.10
2019-01-28T12:22:54.686Z,21.67
2019-01-28T12:25:23.076Z,21.33
2019-01-28T12:27:51.504Z,30.77
2019-01-28T12:30:23.042Z,22.97
2019-01-28T12:32:51.495Z,24.33
2019-01-28T12:35:19.991Z,18.83
2019-01-28T12:37:48.287Z,26.37
2019-01-28T12:40:20.708Z,16.87
2019-01-28T12:42:49.058Z,24.47
2019-01-28T12:45:22.004Z,22.33
2019-01-28T12:47:50.538Z,19.57
2019-01-28T12:50:20.361Z,24.30
2019-01-28T12:52:48.865Z,28.53
2019-01-28T12:55:21.401Z,22.07
2019-01-28T12:57:49.985Z,21.77
2019-01-28T13:00:28.526Z,26.30
2019-01-28T13:02:57.008Z,14.13
2019-01-28T13:05:25.987Z,20.23
2019-01-28T13:07:54.307Z,20.87
2019-01-28T13:10:24.090Z,17.50
2019-01-28T13:12:52.367Z,16.33
2019-01-28T13:15:26.712Z,17.63
2019-01-28T13:17:54.994Z,22.83
2019-01-28T13:20:23.488Z,19.63
2019-01-28T13:22:52.035Z,23.90
2019-01-28T13:25:22.525Z,16.67
2019-01-28T13:27:51.021Z,23.33
2019-01-28T13:30:24.482Z,31.13
2019-01-28T13:32:52.968Z,25.97
2019-01-28T13:35:21.448Z,18.57
2019-01-28T13:37:49.830Z,32.73
2019-01-28T13:40:19.916Z,23.57
2019-01-28T13:42:48.200Z,24.93
2019-01-28T13:45:21.371Z,24.40
2019-01-28T13:47:50.089Z,26.03
2019-01-28T13:50:21.138Z,29.53
2019-01-28T13:52:49.649Z,21.13
2019-01-28T13:55:18.937Z,24.00
2019-01-28T13:57:47.427Z,23.73
2019-01-28T14:00:24.521Z,22.47
2019-01-28T14:02:52.798Z,26.20
2019-01-28T14:05:21.286Z,19.90
2019-01-28T14:07:49.612Z,22.97
2019-01-28T14:10:20.457Z,22.97
2019-01-28T14:12:48.870Z,21.43
2019-01-28T14:15:25.880Z,27.83
2019-01-28T14:17:54.370Z,21.67
2019-01-28T14:20:30.753Z,29.43
2019-01-28T14:22:59.227Z,23.07
2019-01-28T14:25:27.574Z,17.93
2019-01-28T14:27:56.115Z,24.17
2019-01-28T14:30:36.217Z,20.60
2019-01-28T14:33:05.133Z,22.97
2019-01-28T14:35:33.547Z,32.17
2019-01-28T14:38:03.705Z,27.40
2019-01-28T14:40:32.139Z,33.37
2019-01-28T14:43:00.629Z,22.03
2019-01-28T14:45:29.114Z,22.50
2019-01-28T14:47:57.643Z,25.73
2019-01-28T14:50:32.004Z,28.63
2019-01-28T14:53:00.494Z,28.33
2019-01-28T14:55:29.023Z,34.03
2019-01-28T14:57:57.514Z,36.37
2019-01-28T15:00:29.052Z,32.13
2019-01-28T15:02:57.570Z,35.07
2019-01-28T15:05:25.922Z,29.27
2019-01-28T15:07:54.575Z,33.87
2019-01-28T15:10:23.320Z,61.30
2019-01-28T15:12:51.827Z,29.87
2019-01-28T15:15:22.919Z,27.93
2019-01-28T15:17:51.455Z,37.73
2019-01-28T15:20:19.938Z,31.60
2019-01-28T15:22:48.426Z,37.43
2019-01-28T15:25:17.452Z,31.00
2019-01-28T15:27:45.865Z,34.20
2019-01-28T15:30:23.471Z,28.87
2019-01-28T15:32:51.987Z,36.63
2019-01-28T15:35:20.518Z,31.53
2019-01-28T15:37:49.057Z,36.13
2019-01-28T15:40:20.061Z,37.83
2019-01-28T15:42:48.546Z,35.20
2019-01-28T15:45:28.681Z,41.67
2019-01-28T15:47:57.168Z,31.23
2019-01-28T15:50:25.659Z,42.67
2019-01-28T15:52:54.183Z,32.80
2019-01-28T15:55:28.458Z,32.30
2019-01-28T15:57:56.943Z,33.50
2019-01-28T16:00:27.979Z,28.17
2019-01-28T16:02:56.462Z,32.53
2019-01-28T16:05:24.955Z,32.47
2019-01-28T16:07:53.481Z,37.10
2019-01-28T16:10:21.969Z,38.67
2019-01-28T16:12:50.459Z,44.53
2019-01-28T16:15:24.785Z,44.93
2019-01-28T16:17:53.276Z,42.83
2019-01-28T16:20:21.777Z,45.60
2019-01-28T16:22:50.317Z,51.13
2019-01-28T16:25:18.800Z,49.67
2019-01-28T16:27:47.288Z,56.37
2019-01-28T16:30:26.445Z,47.23
2019-01-28T16:32:54.047Z,96.33
2019-01-28T16:35:23.494Z,86.17
2019-01-28T16:37:52.972Z,48.60
2019-01-28T16:40:26.647Z,39.13
2019-01-28T16:42:55.665Z,35.03
2019-01-28T16:45:24.892Z,44.60
2019-01-28T16:47:53.863Z,41.40
2019-01-28T16:50:31.309Z,38.30
2019-01-28T16:53:00.463Z,45.60
2019-01-28T16:55:29.253Z,36.87
2019-01-28T16:57:58.897Z,28.07
2019-01-28T17:00:30.060Z,30.90
2019-01-28T17:02:58.757Z,26.10
2019-01-28T17:05:27.803Z,26.83
2019-01-28T17:07:56.719Z,29.93
2019-01-28T17:10:25.626Z,30.77
2019-01-28T17:12:54.398Z,31.70
2019-01-28T17:15:23.997Z,36.97
2019-01-28T17:17:52.908Z,36.23
2019-01-28T17:20:35.530Z,39.63
2019-01-28T17:23:02.815Z,43.17
2019-01-28T17:25:40.341Z,44.93
2019-01-28T17:28:09.137Z,32.80
2019-01-28T17:30:43.258Z,43.63
2019-01-28T17:33:12.106Z,62.40
2019-01-28T17:35:40.910Z,53.73
2019-01-28T17:38:10.700Z,44.53
2019-01-28T17:40:40.159Z,47.83
2019-01-28T17:43:10.732Z,42.10
2019-01-28T17:45:39.536Z,37.83
2019-01-28T17:48:09.087Z,39.87
2019-01-28T17:50:43.373Z,36.03
2019-01-28T17:53:08.305Z,43.30
2019-01-28T17:55:37.048Z,26.73
2019-01-28T17:58:06.669Z,35.17
2019-01-28T18:00:39.783Z,30.53
2019-01-28T18:03:08.512Z,37.23
2019-01-28T18:05:37.321Z,58.80
2019-01-28T18:08:06.625Z,47.47
2019-01-28T18:10:35.466Z,41.83
2019-01-28T18:13:04.276Z,47.77
2019-01-28T18:15:32.983Z,52.70
2019-01-28T18:18:04.633Z,67.47
2019-01-28T18:20:36.331Z,63.57
2019-01-28T18:23:05.238Z,53.87
2019-01-28T18:25:36.731Z,49.93
2019-01-28T18:28:06.238Z,50.97
2019-01-28T18:30:51.988Z,64.90
2019-01-28T18:33:20.707Z,51.00
2019-01-28T18:35:49.502Z,43.43
2019-01-28T18:38:19.708Z,61.73
2019-01-28T18:40:48.425Z,45.27
2019-01-28T18:43:17.342Z,42.70
2019-01-28T18:45:46.172Z,56.10
2019-01-28T18:48:16.350Z,57.73
2019-01-28T18:50:45.060Z,47.57
2019-01-28T18:53:13.826Z,55.23
2019-01-28T18:55:43.961Z,43.17
2019-01-28T18:58:12.673Z,39.93
2019-01-28T19:00:41.417Z,38.33
2019-01-28T19:03:10.119Z,42.80
2019-01-28T19:05:56.628Z,37.30
2019-01-28T19:08:27.004Z,32.83
2019-01-28T19:11:00.282Z,35.00
2019-01-28T19:13:30.563Z,36.33
2019-01-28T19:16:00.947Z,45.77
2019-01-28T19:18:34.407Z,48.23
2019-01-28T19:21:13.504Z,32.77
2019-01-28T19:23:42.642Z,32.60
2019-01-28T19:26:11.527Z,41.83
2019-01-28T19:28:40.230Z,33.37
2019-01-28T19:31:09.083Z,32.43
2019-01-28T19:33:37.783Z,35.27
2019-01-28T19:36:06.624Z,32.13
2019-01-28T19:38:35.375Z,36.73
2019-01-28T19:41:04.189Z,32.00
2019-01-28T19:43:32.890Z,43.20
2019-01-28T19:46:01.632Z,35.13
2019-01-28T19:48:30.328Z,35.73
2019-01-28T19:51:00.505Z,42.20
2019-01-28T19:53:29.254Z,35.67
2019-01-28T19:55:57.967Z,44.77
2019-01-28T19:58:26.679Z,32.53
2019-01-28T20:00:55.424Z,29.73
2019-01-28T20:03:24.135Z,28.57
2019-01-28T20:05:52.830Z,33.70
2019-01-28T20:08:21.579Z,33.00
2019-01-28T20:10:50.494Z,41.73
2019-01-28T20:13:19.291Z,39.00
2019-01-28T20:15:48.044Z,30.40
2019-01-28T20:18:16.747Z,25.50
2019-01-28T20:20:45.447Z,79.07
2019-01-28T20:23:14.235Z,65.60
2019-01-28T20:25:42.946Z,75.73
2019-01-28T20:28:13.201Z,84.90
2019-01-28T20:30:42.003Z,61.90
2019-01-28T20:33:10.710Z,55.90
2019-01-28T20:35:39.431Z,50.00
2019-01-28T20:38:15.404Z,42.40
2019-01-28T20:40:38.624Z,37.53
2019-01-28T20:43:08.327Z,61.50
2019-01-28T20:45:44.933Z,76.63
2019-01-28T20:48:10.295Z,67.47
2019-01-28T20:50:38.995Z,53.33
2019-01-28T20:53:07.756Z,46.87
2019-01-28T20:55:36.475Z,105.27
2019-01-28T20:58:05.619Z,65.63
2019-01-28T21:00:34.352Z,67.13
2019-01-28T21:03:03.033Z,63.07
2019-01-28T21:05:31.734Z,62.50
2019-01-28T21:08:01.940Z,111.53
2019-01-28T21:10:30.647Z,51.47
2019-01-28T21:12:59.351Z,63.20
2019-01-28T21:15:28.163Z,44.40
2019-01-28T21:17:56.823Z,40.57
2019-01-28T21:20:25.537Z,56.17
2019-01-28T21:22:54.276Z,38.13
2019-01-28T21:25:28.724Z,41.47
2019-01-28T21:27:57.551Z,27.93
2019-01-28T21:30:31.717Z,24.93
2019-01-28T21:33:00.513Z,37.53
2019-01-28T21:35:49.185Z,37.13
2019-01-28T21:38:25.571Z,37.57
2019-01-28T21:40:54.314Z,82.40
2019-01-28T21:43:23.013Z,38.00
2019-01-28T21:45:52.570Z,40.40
2019-01-28T21:48:21.315Z,55.73
2019-01-28T21:50:50.022Z,40.50
2019-01-28T21:53:18.716Z,25.07
2019-01-28T21:55:47.453Z,30.77
2019-01-28T21:58:16.151Z,26.70
2019-01-28T22:00:45.014Z,38.73
2019-01-28T22:03:13.753Z,38.93
2019-01-28T22:05:42.449Z,32.77
2019-01-28T22:08:11.083Z,40.80
2019-01-28T22:10:39.746Z,29.43
2019-01-28T22:13:08.509Z,26.13
2019-01-28T22:15:37.215Z,28.30
2019-01-28T22:18:06.047Z,27.67
2019-01-28T22:20:34.685Z,32.80
2019-01-28T22:23:03.307Z,39.90
2019-01-28T22:25:32.046Z,27.20
2019-01-28T22:28:00.753Z,39.73
2019-01-28T22:30:29.380Z,30.50
2019-01-28T22:32:58.041Z,33.17
2019-01-28T22:35:26.665Z,31.07
2019-01-28T22:37:55.291Z,34.27
2019-01-28T22:40:23.952Z,39.30
2019-01-28T22:42:52.654Z,31.93
2019-01-28T22:45:21.781Z,28.80
2019-01-28T22:47:51.318Z,41.33
2019-01-28T22:50:21.352Z,34.93
2019-01-28T22:52:49.988Z,39.70
2019-01-28T22:55:21.886Z,39.60
2019-01-28T22:57:50.529Z,36.07
2019-01-28T23:00:51.327Z,28.80
2019-01-28T23:03:21.667Z,29.40
2019-01-28T23:05:50.298Z,30.03
2019-01-28T23:08:18.966Z,39.53
2019-01-28T23:10:47.597Z,37.30
2019-01-28T23:13:16.223Z,44.23
2019-01-28T23:15:44.890Z,27.50
2019-01-28T23:18:13.525Z,32.53
2019-01-28T23:20:42.149Z,44.57
2019-01-28T23:23:10.815Z,46.43
2019-01-28T23:25:39.458Z,37.27
2019-01-28T23:28:09.184Z,75.37
2019-01-28T23:30:37.942Z,32.37
2019-01-28T23:33:06.674Z,35.17
2019-01-28T23:35:35.303Z,38.03
2019-01-28T23:38:05.167Z,37.03
2019-01-28T23:40:33.822Z,41.97
2019-01-28T23:43:02.438Z,40.10
2019-01-28T23:45:31.114Z,34.57
2019-01-28T23:47:59.745Z,32.90
2019-01-28T23:50:29.225Z,33.97
2019-01-28T23:52:57.874Z,29.67
2019-01-28T23:55:26.501Z,33.83
2019-01-28T23:57:56.894Z,36.17
